Time;durP1;ratioP1;P1;durP2;ratioP2;P2;SDS_P1;SDS_P2;PMS_P1;PMS_P2;Temp;Humidity;BMP_temperature;BMP_pressure;BME280_temperature;BME280_humidity;BME280_pressure;Samples;Min_cycle;Max_cycle;Signal;HPM_P1;HPM_P2
2022/03/24 00:02:03;;;;;;;15.90;8.85;;;;;;;;;;4930341;29;20418;-71
2022/03/24 00:04:28;;;;;;;19.88;9.90;;;;;;;;;;4929568;29;20036;-73
2022/03/24 00:06:55;;;;;;;19.08;9.18;;;;;;;;;;4929907;29;20052;-70
2022/03/24 00:09:21;;;;;;;11.52;8.18;;;;;;;;;;4930963;29;20048;-77
2022/03/24 00:11:47;;;;;;;16.25;9.10;;;;;;;;;;4932442;29;20047;-71
2022/03/24 00:14:13;;;;;;;15.27;8.73;;;;;;;;;;4930401;29;20413;-69
2022/03/24 00:16:39;;;;;;;17.08;9.50;;;;;;;;;;4934395;29;20059;-69
2022/03/24 00:19:05;;;;;;;17.52;9.40;;;;;;;;;;4933298;29;20430;-69
2022/03/24 00:21:31;;;;;;;16.50;9.15;;;;;;;;;;4934224;29;20040;-69
2022/03/24 00:23:57;;;;;;;16.23;8.65;;;;;;;;;;4928465;29;20099;-71
2022/03/24 00:26:23;;;;;;;15.95;9.40;;;;;;;;;;4917267;29;20060;-70
2022/03/24 00:28:49;;;;;;;17.75;9.82;;;;;;;;;;4927705;29;20055;-70
2022/03/24 00:31:15;;;;;;;16.92;9.10;;;;;;;;;;4934318;29;20486;-71
2022/03/24 00:33:41;;;;;;;17.10;9.13;;;;;;;;;;4935984;29;20047;-70
2022/03/24 00:36:10;;;;;;;15.75;8.68;;;;;;;;;;4933863;29;20589;-71
2022/03/24 00:38:36;;;;;;;18.85;9.38;;;;;;;;;;4930371;29;20063;-69
2022/03/24 00:41:02;;;;;;;14.23;8.30;;;;;;;;;;4932446;29;20047;-70
2022/03/24 00:43:30;;;;;;;13.60;8.32;;;;;;;;;;4935401;29;20058;-71
2022/03/24 00:45:56;;;;;;;15.77;8.70;;;;;;;;;;4928317;29;20337;-72
2022/03/24 00:48:23;;;;;;;15.45;8.40;;;;;;;;;;4932006;29;20051;-70
2022/03/24 00:50:49;;;;;;;17.42;8.57;;;;;;;;;;4930986;29;20090;-68
2022/03/24 00:53:16;;;;;;;13.82;7.90;;;;;;;;;;4936422;29;20469;-69
2022/03/24 00:55:43;;;;;;;12.15;8.00;;;;;;;;;;4929916;29;20063;-70
2022/03/24 00:58:10;;;;;;;12.70;7.65;;;;;;;;;;4922479;29;20046;-69
2022/03/24 01:00:37;;;;;;;15.93;8.55;;;;;;;;;;4925740;29;20043;-69
2022/03/24 01:03:06;;;;;;;15.13;8.00;;;;;;;;;;4929705;29;20066;-68
2022/03/24 01:05:37;;;;;;;13.80;7.93;;;;;;;;;;4927166;29;20465;-69
2022/03/24 01:08:08;;;;;;;14.13;8.10;;;;;;;;;;4921119;29;20241;-68
2022/03/24 01:10:35;;;;;;;13.57;8.10;;;;;;;;;;4928707;29;20054;-70
2022/03/24 01:13:03;;;;;;;14.65;7.43;;;;;;;;;;4928605;29;20071;-70
2022/03/24 01:15:30;;;;;;;15.25;8.52;;;;;;;;;;4930645;29;20047;-70
2022/03/24 01:17:59;;;;;;;15.57;7.80;;;;;;;;;;4926215;29;20508;-69
2022/03/24 01:20:27;;;;;;;14.38;8.80;;;;;;;;;;4931245;29;20059;-68
2022/03/24 01:22:53;;;;;;;19.80;8.18;;;;;;;;;;4913015;29;20044;-68
2022/03/24 01:25:19;;;;;;;20.92;8.07;;;;;;;;;;4926940;29;20058;-69
2022/03/24 01:27:46;;;;;;;18.08;8.52;;;;;;;;;;4930502;29;20052;-69
2022/03/24 01:30:12;;;;;;;15.13;7.80;;;;;;;;;;4927941;29;20051;-68
2022/03/24 01:32:38;;;;;;;14.52;7.53;;;;;;;;;;4907218;29;20447;-69
2022/03/24 01:35:07;;;;;;;13.25;6.93;;;;;;;;;;4915570;29;20115;-68
2022/03/24 01:37:35;;;;;;;13.18;7.45;;;;;;;;;;4923615;29;20040;-69
2022/03/24 01:40:07;;;;;;;12.15;6.85;;;;;;;;;;4928095;29;20510;-69
2022/03/24 01:42:37;;;;;;;13.13;7.10;;;;;;;;;;4921603;29;20066;-70
2022/03/24 01:45:05;;;;;;;12.65;7.95;;;;;;;;;;4923689;29;20406;-69
2022/03/24 01:47:32;;;;;;;13.80;8.75;;;;;;;;;;4918808;29;20418;-70
2022/03/24 01:49:58;;;;;;;15.52;8.60;;;;;;;;;;4928795;29;20036;-71
2022/03/24 01:52:26;;;;;;;12.75;8.52;;;;;;;;;;4926865;29;20542;-69
2022/03/24 01:54:55;;;;;;;12.07;8.82;;;;;;;;;;4919900;29;20212;-68
2022/03/24 01:57:22;;;;;;;16.20;9.10;;;;;;;;;;4907019;29;20051;-71
2022/03/24 01:59:49;;;;;;;13.57;9.02;;;;;;;;;;4929938;29;20107;-69
2022/03/24 02:02:16;;;;;;;13.60;7.97;;;;;;;;;;4927332;29;20048;-71
2022/03/24 02:04:43;;;;;;;19.10;8.55;;;;;;;;;;4929445;29;20052;-68
2022/03/24 02:07:16;;;;;;;16.50;9.30;;;;;;;;;;4926258;29;20047;-70
2022/03/24 02:09:42;;;;;;;14.52;9.18;;;;;;;;;;4927659;29;20068;-69
2022/03/24 02:12:11;;;;;;;16.33;8.43;;;;;;;;;;4931109;29;20051;-68
2022/03/24 02:14:38;;;;;;;12.95;9.07;;;;;;;;;;4926194;29;20273;-67
2022/03/24 02:17:05;;;;;;;13.88;9.10;;;;;;;;;;4933631;29;20060;-71
2022/03/24 02:19:31;;;;;;;13.50;8.52;;;;;;;;;;4933340;29;20059;-71
2022/03/24 02:22:14;;;;;;;11.75;8.45;;;;;;;;;;4914278;29;20144;-69
2022/03/24 02:24:40;;;;;;;14.27;8.02;;;;;;;;;;4926645;29;20051;-68
2022/03/24 02:27:06;;;;;;;11.73;8.10;;;;;;;;;;4931253;29;20119;-67
2022/03/24 02:29:32;;;;;;;10.40;7.85;;;;;;;;;;4931293;29;20138;-68
2022/03/24 02:31:59;;;;;;;13.32;8.52;;;;;;;;;;4919452;29;20123;-69
2022/03/24 02:37:12;;;;;;;13.18;8.13;;;;;;;;;;4927986;29;20062;-69
2022/03/24 02:39:41;;;;;;;12.07;7.72;;;;;;;;;;4930861;29;20062;-69
2022/03/24 02:42:13;;;;;;;11.73;7.55;;;;;;;;;;4930018;29;20548;-69
2022/03/24 02:44:39;;;;;;;12.98;7.97;;;;;;;;;;4928158;29;20491;-68
2022/03/24 02:47:06;;;;;;;11.73;7.80;;;;;;;;;;4927661;29;20051;-70
2022/03/24 02:49:33;;;;;;;12.45;8.35;;;;;;;;;;4925451;29;20522;-69
2022/03/24 02:52:00;;;;;;;12.70;8.55;;;;;;;;;;4927321;29;20509;-69
2022/03/24 02:54:29;;;;;;;10.50;8.07;;;;;;;;;;4927261;29;20048;-71
2022/03/24 02:56:55;;;;;;;10.68;7.57;;;;;;;;;;4931046;29;20075;-70
2022/03/24 02:59:22;;;;;;;10.32;7.38;;;;;;;;;;4932960;29;20051;-70
2022/03/24 03:02:24;;;;;;;11.27;7.55;;;;;;;;;;4929675;29;20047;-74
2022/03/24 03:04:53;;;;;;;15.55;7.55;;;;;;;;;;4921935;29;20055;-69
2022/03/24 03:07:22;;;;;;;10.85;7.88;;;;;;;;;;4931065;29;20720;-68
2022/03/24 03:09:49;;;;;;;11.38;7.10;;;;;;;;;;4933135;29;20071;-67
2022/03/24 03:12:16;;;;;;;12.70;6.68;;;;;;;;;;4930445;29;20055;-71
2022/03/24 03:14:42;;;;;;;11.50;7.22;;;;;;;;;;4930340;29;20484;-68
2022/03/24 03:17:09;;;;;;;9.80;6.85;;;;;;;;;;4931915;29;20085;-69
2022/03/24 03:19:35;;;;;;;9.68;7.30;;;;;;;;;;4930248;29;20559;-69
2022/03/24 03:22:04;;;;;;;10.43;7.35;;;;;;;;;;4924441;29;20126;-69
2022/03/24 03:24:30;;;;;;;15.57;7.97;;;;;;;;;;4928309;29;20082;-74
2022/03/24 03:26:56;;;;;;;8.57;7.10;;;;;;;;;;4925038;29;20048;-73
2022/03/24 03:29:25;;;;;;;10.50;7.22;;;;;;;;;;4940687;29;20114;-71
2022/03/24 03:31:54;;;;;;;12.00;6.97;;;;;;;;;;4931741;29;20040;-68
2022/03/24 03:34:24;;;;;;;10.38;6.93;;;;;;;;;;4915141;29;20047;-69
2022/03/24 03:36:51;;;;;;;9.35;7.20;;;;;;;;;;4925912;29;20044;-69
2022/03/24 03:39:17;;;;;;;9.88;6.88;;;;;;;;;;4930094;29;20052;-69
2022/03/24 03:41:43;;;;;;;9.60;7.15;;;;;;;;;;4930289;29;20367;-70
2022/03/24 03:44:09;;;;;;;10.43;6.85;;;;;;;;;;4930643;29;20067;-69
2022/03/24 03:46:35;;;;;;;9.93;6.45;;;;;;;;;;4931386;29;20152;-69
2022/03/24 03:49:03;;;;;;;9.60;6.43;;;;;;;;;;4925821;29;20044;-68
2022/03/24 03:51:31;;;;;;;10.10;6.15;;;;;;;;;;4930444;29;20044;-67
2022/03/24 03:53:58;;;;;;;9.95;5.97;;;;;;;;;;4927877;29;20527;-69
2022/03/24 03:56:23;;;;;;;7.85;6.07;;;;;;;;;;4930270;29;20526;-69
2022/03/24 03:58:49;;;;;;;9.52;5.82;;;;;;;;;;4929087;29;20265;-69
2022/03/24 04:01:16;;;;;;;10.20;6.35;;;;;;;;;;4905973;29;20048;-68
2022/03/24 04:03:42;;;;;;;8.55;6.00;;;;;;;;;;4919358;29;20084;-68
2022/03/24 04:06:10;;;;;;;8.80;5.65;;;;;;;;;;4922124;29;20056;-68
2022/03/24 04:08:37;;;;;;;8.90;6.45;;;;;;;;;;4925065;29;20449;-67
2022/03/24 04:11:05;;;;;;;10.02;6.68;;;;;;;;;;4926617;29;20047;-70
2022/03/24 04:13:31;;;;;;;12.02;6.75;;;;;;;;;;4928742;29;20058;-70
2022/03/24 04:15:57;;;;;;;9.10;6.85;;;;;;;;;;4924452;29;20047;-67
2022/03/24 04:18:23;;;;;;;8.68;6.10;;;;;;;;;;4929042;29;20108;-67
2022/03/24 04:20:50;;;;;;;8.18;5.82;;;;;;;;;;4926292;29;20044;-69
2022/03/24 04:23:18;;;;;;;7.93;5.75;;;;;;;;;;4930503;29;20050;-69
2022/03/24 04:25:45;;;;;;;9.85;5.65;;;;;;;;;;4919243;29;20677;-69
2022/03/24 04:28:11;;;;;;;9.45;6.03;;;;;;;;;;4922376;29;20144;-69
2022/03/24 04:30:38;;;;;;;9.02;5.38;;;;;;;;;;4928127;29;20048;-67
2022/03/24 04:33:07;;;;;;;7.05;5.28;;;;;;;;;;4928849;29;20059;-67
2022/03/24 04:35:33;;;;;;;7.60;5.15;;;;;;;;;;4924744;29;20138;-68
2022/03/24 04:37:59;;;;;;;9.32;5.80;;;;;;;;;;4926043;29;20048;-69
2022/03/24 04:40:26;;;;;;;7.15;5.53;;;;;;;;;;4928653;29;20055;-68
2022/03/24 04:42:54;;;;;;;9.00;5.82;;;;;;;;;;4916367;29;20483;-68
2022/03/24 04:45:21;;;;;;;6.10;4.97;;;;;;;;;;4916918;29;20048;-71
2022/03/24 04:47:48;;;;;;;10.02;5.40;;;;;;;;;;4927339;29;20040;-71
2022/03/24 04:50:16;;;;;;;7.82;5.47;;;;;;;;;;4929057;29;20070;-70
2022/03/24 04:52:43;;;;;;;7.35;5.18;;;;;;;;;;4924257;29;20405;-69
2022/03/24 04:55:09;;;;;;;6.68;5.22;;;;;;;;;;4926433;29;20056;-69
2022/03/24 04:57:35;;;;;;;8.40;5.28;;;;;;;;;;4928099;29;20062;-69
2022/03/24 05:00:04;;;;;;;8.20;5.18;;;;;;;;;;4927935;29;20152;-70
2022/03/24 05:02:30;;;;;;;6.32;4.95;;;;;;;;;;4924435;29;20159;-70
2022/03/24 05:04:56;;;;;;;11.32;5.60;;;;;;;;;;4928479;29;20056;-69
2022/03/24 05:07:22;;;;;;;9.25;5.10;;;;;;;;;;4925433;29;20043;-71
2022/03/24 05:09:50;;;;;;;6.63;5.10;;;;;;;;;;4906560;29;20068;-71
2022/03/24 05:12:17;;;;;;;6.32;5.07;;;;;;;;;;4924145;29;20127;-68
2022/03/24 05:14:43;;;;;;;7.93;5.50;;;;;;;;;;4925977;29;20466;-70
2022/03/24 05:17:08;;;;;;;7.57;5.35;;;;;;;;;;4928159;29;20382;-68
2022/03/24 05:19:35;;;;;;;7.50;5.20;;;;;;;;;;4920850;29;20086;-69
2022/03/24 05:22:01;;;;;;;6.88;5.00;;;;;;;;;;4924526;29;20054;-70
2022/03/24 05:24:27;;;;;;;7.38;5.22;;;;;;;;;;4918002;29;20055;-67
2022/03/24 05:26:53;;;;;;;9.50;5.95;;;;;;;;;;4925746;29;20126;-70
2022/03/24 05:29:19;;;;;;;7.22;5.35;;;;;;;;;;4923845;29;20482;-68
2022/03/24 05:31:45;;;;;;;9.52;5.32;;;;;;;;;;4926564;29;20138;-69
2022/03/24 05:34:12;;;;;;;8.13;5.60;;;;;;;;;;4928784;29;20040;-71
2022/03/24 05:36:38;;;;;;;6.68;5.40;;;;;;;;;;4931674;29;20061;-68
2022/03/24 05:39:04;;;;;;;10.75;6.18;;;;;;;;;;4924193;29;20743;-68
2022/03/24 05:41:30;;;;;;;7.43;5.32;;;;;;;;;;4926477;29;20416;-70
2022/03/24 05:44:02;;;;;;;10.30;5.53;;;;;;;;;;4904058;29;20056;-69
2022/03/24 05:46:33;;;;;;;8.88;5.80;;;;;;;;;;4918198;29;20099;-69
2022/03/24 05:48:59;;;;;;;7.65;5.88;;;;;;;;;;4927267;29;20086;-70
2022/03/24 05:51:25;;;;;;;8.02;5.18;;;;;;;;;;4923839;29;20203;-69
2022/03/24 05:53:51;;;;;;;8.50;5.47;;;;;;;;;;4926737;29;20060;-68
2022/03/24 05:56:18;;;;;;;9.23;5.40;;;;;;;;;;4920583;29;20061;-70
2022/03/24 05:58:45;;;;;;;8.70;5.93;;;;;;;;;;4925908;29;20054;-70
2022/03/24 06:01:11;;;;;;;7.47;5.82;;;;;;;;;;4920025;29;20094;-68
2022/03/24 06:03:37;;;;;;;9.77;5.55;;;;;;;;;;4928686;29;20130;-70
2022/03/24 06:06:06;;;;;;;8.15;5.38;;;;;;;;;;4924341;29;20047;-68
2022/03/24 06:08:33;;;;;;;7.93;5.85;;;;;;;;;;4926667;29;20614;-70
2022/03/24 06:11:00;;;;;;;10.02;5.97;;;;;;;;;;4925730;29;20632;-68
2022/03/24 06:13:26;;;;;;;8.48;6.10;;;;;;;;;;4929525;29;20052;-70
2022/03/24 06:15:54;;;;;;;9.63;6.13;;;;;;;;;;4928221;29;20421;-69
2022/03/24 06:18:20;;;;;;;9.50;6.60;;;;;;;;;;4924156;29;20051;-70
2022/03/24 06:20:46;;;;;;;9.60;6.78;;;;;;;;;;4924945;29;20119;-69
2022/03/24 06:23:12;;;;;;;11.27;7.18;;;;;;;;;;4925230;29;20509;-71
2022/03/24 06:25:42;;;;;;;10.90;6.65;;;;;;;;;;4924567;29;20047;-70
2022/03/24 06:28:08;;;;;;;12.73;7.93;;;;;;;;;;4927530;29;20051;-69
2022/03/24 06:30:35;;;;;;;9.77;7.18;;;;;;;;;;4927255;29;20062;-71
2022/03/24 06:33:01;;;;;;;9.00;7.00;;;;;;;;;;4926916;29;20075;-72
2022/03/24 06:35:27;;;;;;;12.63;7.95;;;;;;;;;;4925137;29;20055;-70
2022/03/24 06:37:53;;;;;;;9.05;6.30;;;;;;;;;;4925424;29;20134;-71
2022/03/24 06:40:20;;;;;;;8.20;6.90;;;;;;;;;;4922565;29;20043;-70
2022/03/24 06:42:47;;;;;;;9.32;6.78;;;;;;;;;;4923971;29;20051;-70
2022/03/24 06:45:13;;;;;;;10.82;6.50;;;;;;;;;;4923622;29;20156;-71
2022/03/24 06:47:41;;;;;;;8.48;6.68;;;;;;;;;;4921784;29;20054;-71
2022/03/24 06:50:15;;;;;;;10.20;6.43;;;;;;;;;;4926994;29;20040;-71
2022/03/24 06:52:43;;;;;;;7.32;6.38;;;;;;;;;;4923900;29;20051;-72
2022/03/24 06:55:12;;;;;;;9.82;7.10;;;;;;;;;;4927283;29;20584;-70
2022/03/24 06:57:39;;;;;;;8.70;6.65;;;;;;;;;;4926001;29;20066;-69
2022/03/24 07:00:06;;;;;;;8.18;6.55;;;;;;;;;;4926586;29;20055;-71
2022/03/24 07:02:32;;;;;;;10.50;6.68;;;;;;;;;;4923855;29;20370;-68
2022/03/24 07:04:58;;;;;;;10.95;6.38;;;;;;;;;;4928334;29;20810;-70
2022/03/24 07:07:27;;;;;;;9.32;6.75;;;;;;;;;;4924705;29;20461;-69
2022/03/24 07:09:53;;;;;;;9.40;6.60;;;;;;;;;;4923193;29;20055;-69
2022/03/24 07:12:20;;;;;;;12.75;6.85;;;;;;;;;;4923343;29;20051;-69
2022/03/24 07:14:46;;;;;;;11.60;6.35;;;;;;;;;;4924831;29;20084;-71
2022/03/24 07:17:12;;;;;;;10.82;6.80;;;;;;;;;;4923500;29;20043;-69
2022/03/24 07:19:38;;;;;;;8.73;6.40;;;;;;;;;;4924434;29;20294;-69
2022/03/24 07:22:04;;;;;;;11.95;6.20;;;;;;;;;;4919826;29;21030;-67
2022/03/24 07:24:30;;;;;;;8.13;6.22;;;;;;;;;;4922930;29;20048;-70
2022/03/24 07:26:56;;;;;;;8.82;6.75;;;;;;;;;;4922961;29;20065;-69
2022/03/24 07:29:22;;;;;;;11.02;6.80;;;;;;;;;;4925846;29;20055;-69
2022/03/24 07:31:49;;;;;;;9.95;7.25;;;;;;;;;;4921659;29;20051;-71
2022/03/24 07:34:16;;;;;;;8.20;6.57;;;;;;;;;;4922600;29;20048;-70
2022/03/24 07:36:43;;;;;;;9.15;6.65;;;;;;;;;;4923115;29;20048;-70
2022/03/24 07:39:10;;;;;;;9.20;6.75;;;;;;;;;;4918519;29;20515;-71
2022/03/24 07:41:36;;;;;;;9.65;7.45;;;;;;;;;;4922814;29;20076;-71
2022/03/24 07:44:02;;;;;;;10.23;6.68;;;;;;;;;;4926034;29;20086;-71
2022/03/24 07:46:28;;;;;;;10.57;6.60;;;;;;;;;;4916411;29;20095;-75
2022/03/24 07:48:54;;;;;;;11.55;6.65;;;;;;;;;;4927874;29;20052;-74
2022/03/24 07:51:21;;;;;;;8.65;6.50;;;;;;;;;;4928227;29;20270;-74
2022/03/24 07:53:49;;;;;;;7.53;6.25;;;;;;;;;;4932828;29;20055;-73
2022/03/24 07:56:17;;;;;;;8.38;6.40;;;;;;;;;;4926235;29;20071;-73
2022/03/24 07:58:43;;;;;;;10.80;6.85;;;;;;;;;;4931418;29;20047;-72
2022/03/24 08:01:10;;;;;;;10.88;6.50;;;;;;;;;;4926713;29;20517;-71
2022/03/24 08:03:36;;;;;;;7.68;5.85;;;;;;;;;;4929559;29;20083;-74
2022/03/24 08:06:02;;;;;;;11.20;6.20;;;;;;;;;;4933598;29;20413;-73
2022/03/24 08:08:29;;;;;;;8.48;5.82;;;;;;;;;;4928928;29;20044;-70
2022/03/24 08:10:55;;;;;;;10.57;5.70;;;;;;;;;;4929647;29;20047;-70
2022/03/24 08:13:22;;;;;;;10.45;6.28;;;;;;;;;;4928246;29;20127;-73
2022/03/24 08:15:48;;;;;;;7.53;5.43;;;;;;;;;;4912105;29;20413;-71
2022/03/24 08:18:16;;;;;;;8.43;6.07;;;;;;;;;;4911385;29;20533;-67
2022/03/24 08:20:44;;;;;;;9.55;6.88;;;;;;;;;;4930272;29;20039;-74
2022/03/24 08:23:11;;;;;;;8.05;6.07;;;;;;;;;;4928271;29;20039;-71
2022/03/24 08:25:41;;;;;;;8.30;6.47;;;;;;;;;;4930223;29;20138;-72
2022/03/24 08:28:09;;;;;;;7.70;6.18;;;;;;;;;;4931542;29;20058;-71
2022/03/24 08:30:35;;;;;;;9.65;6.32;;;;;;;;;;4932457;29;20064;-70
2022/03/24 08:33:03;;;;;;;8.85;6.45;;;;;;;;;;4933265;29;20044;-72
2022/03/24 08:35:28;;;;;;;10.18;5.75;;;;;;;;;;4915402;29;20131;-69
2022/03/24 08:37:59;;;;;;;7.93;6.03;;;;;;;;;;4930294;29;20130;-73
2022/03/24 08:40:25;;;;;;;8.07;5.70;;;;;;;;;;4926471;29;20048;-70
2022/03/24 08:42:51;;;;;;;9.05;5.70;;;;;;;;;;4928918;29;20150;-69
2022/03/24 08:45:18;;;;;;;10.07;5.85;;;;;;;;;;4929451;29;20051;-68
2022/03/24 08:47:44;;;;;;;8.23;5.70;;;;;;;;;;4928975;29;20192;-70
2022/03/24 08:50:12;;;;;;;8.15;5.72;;;;;;;;;;4930345;29;20044;-69
2022/03/24 08:52:38;;;;;;;7.15;5.65;;;;;;;;;;4922566;29;20111;-70
2022/03/24 08:55:06;;;;;;;6.72;5.20;;;;;;;;;;4931427;29;20122;-70
2022/03/24 08:57:33;;;;;;;7.68;5.43;;;;;;;;;;4935177;29;20071;-69
2022/03/24 09:00:01;;;;;;;6.75;5.07;;;;;;;;;;4928845;29;20121;-69
2022/03/24 09:02:28;;;;;;;7.45;5.30;;;;;;;;;;4921732;29;20052;-69
2022/03/24 09:04:54;;;;;;;7.43;5.68;;;;;;;;;;4928534;29;20043;-68
2022/03/24 09:07:20;;;;;;;9.13;5.00;;;;;;;;;;4927755;29;20051;-70
2022/03/24 09:09:46;;;;;;;9.15;5.65;;;;;;;;;;4931978;29;20047;-71
2022/03/24 09:12:12;;;;;;;7.97;5.93;;;;;;;;;;4917448;29;20050;-70
2022/03/24 09:14:40;;;;;;;6.18;4.90;;;;;;;;;;4933436;29;20043;-70
2022/03/24 09:17:08;;;;;;;9.15;5.22;;;;;;;;;;4921418;29;20063;-70
2022/03/24 09:19:34;;;;;;;6.28;5.20;;;;;;;;;;4932984;29;20051;-70
2022/03/24 09:22:07;;;;;;;7.55;4.97;;;;;;;;;;4930805;29;20047;-69
2022/03/24 09:24:34;;;;;;;5.88;4.72;;;;;;;;;;4911928;29;20122;-69
2022/03/24 09:27:01;;;;;;;8.48;5.10;;;;;;;;;;4934490;29;20047;-70
2022/03/24 09:29:26;;;;;;;7.10;5.22;;;;;;;;;;4915008;29;20513;-72
2022/03/24 09:31:52;;;;;;;7.03;4.85;;;;;;;;;;4929872;29;20048;-69
2022/03/24 09:34:18;;;;;;;6.78;4.90;;;;;;;;;;4931982;29;20078;-70
2022/03/24 09:36:44;;;;;;;6.63;5.10;;;;;;;;;;4938607;29;20057;-71
2022/03/24 09:39:11;;;;;;;7.65;5.22;;;;;;;;;;4920580;29;20131;-68
2022/03/24 09:41:40;;;;;;;7.43;4.70;;;;;;;;;;4932078;29;20134;-70
2022/03/24 09:44:07;;;;;;;5.90;4.65;;;;;;;;;;4935018;29;20056;-72
2022/03/24 09:46:33;;;;;;;7.55;5.00;;;;;;;;;;4927216;29;20074;-70
2022/03/24 09:49:00;;;;;;;6.88;5.28;;;;;;;;;;4928361;29;20052;-68
2022/03/24 09:51:26;;;;;;;8.80;5.53;;;;;;;;;;4930244;29;20040;-72
2022/03/24 09:53:53;;;;;;;8.85;5.38;;;;;;;;;;4937501;29;20051;-70
2022/03/24 09:56:19;;;;;;;10.27;5.38;;;;;;;;;;4933939;29;20044;-70
2022/03/24 09:58:48;;;;;;;7.70;5.38;;;;;;;;;;4934642;29;20056;-70
2022/03/24 10:01:15;;;;;;;10.02;5.80;;;;;;;;;;4936194;29;20066;-71
2022/03/24 10:04:02;;;;;;;12.30;5.93;;;;;;;;;;4925977;29;20146;-74
2022/03/24 10:06:28;;;;;;;10.32;6.05;;;;;;;;;;4933498;29;20059;-69
2022/03/24 10:08:54;;;;;;;9.80;5.72;;;;;;;;;;4932066;29;20059;-71
2022/03/24 10:11:25;;;;;;;9.65;5.60;;;;;;;;;;4923506;29;20043;-69
2022/03/24 10:13:54;;;;;;;7.65;5.30;;;;;;;;;;4930753;29;20532;-71
2022/03/24 10:16:38;;;;;;;7.53;5.53;;;;;;;;;;4925617;29;20713;-71
2022/03/24 10:19:07;;;;;;;6.65;5.45;;;;;;;;;;4931182;29;20493;-69
2022/03/24 10:21:36;;;;;;;8.85;5.35;;;;;;;;;;4928756;29;20048;-69
2022/03/24 10:24:11;;;;;;;7.03;5.90;;;;;;;;;;4923061;29;20550;-71
2022/03/24 10:27:00;;;;;;;11.30;6.30;;;;;;;;;;4938874;29;20048;-70
2022/03/24 10:29:28;;;;;;;11.38;5.85;;;;;;;;;;4931025;29;20191;-69
2022/03/24 10:31:56;;;;;;;7.93;5.82;;;;;;;;;;4913729;29;20043;-70
2022/03/24 10:34:37;;;;;;;8.80;6.03;;;;;;;;;;4931880;29;20051;-68
2022/03/24 10:37:05;;;;;;;8.48;6.20;;;;;;;;;;4932774;29;20518;-67
2022/03/24 10:39:33;;;;;;;10.77;6.35;;;;;;;;;;4933181;29;20115;-67
2022/03/24 10:42:14;;;;;;;9.70;6.50;;;;;;;;;;4938753;29;20095;-68
2022/03/24 10:45:05;;;;;;;6.88;5.60;;;;;;;;;;4931037;29;20039;-68
2022/03/24 10:47:52;;;;;;;11.88;6.32;;;;;;;;;;4931981;29;20052;-69
2022/03/24 10:50:40;;;;;;;8.95;6.07;;;;;;;;;;4931941;29;20051;-68
2022/03/24 10:53:12;;;;;;;8.60;5.75;;;;;;;;;;4943533;29;20059;-70
2022/03/24 10:55:51;;;;;;;9.32;6.18;;;;;;;;;;4935301;29;20577;-68
2022/03/24 10:58:22;;;;;;;9.20;6.43;;;;;;;;;;4935242;29;20040;-68
2022/03/24 11:00:51;;;;;;;8.57;5.85;;;;;;;;;;4930867;29;20055;-67
2022/03/24 11:03:17;;;;;;;8.20;6.10;;;;;;;;;;4928639;29;20890;-67
2022/03/24 11:05:44;;;;;;;7.88;5.82;;;;;;;;;;4932975;29;20450;-67
2022/03/24 11:08:14;;;;;;;8.63;5.97;;;;;;;;;;4931549;29;20039;-68
2022/03/24 11:10:46;;;;;;;6.15;5.50;;;;;;;;;;4929578;29;20043;-68
2022/03/24 11:13:21;;;;;;;6.90;5.47;;;;;;;;;;4932776;29;20047;-69
2022/03/24 11:15:49;;;;;;;5.22;4.72;;;;;;;;;;4932644;29;20498;-69
2022/03/24 11:18:16;;;;;;;8.05;5.15;;;;;;;;;;4931151;29;20048;-67
2022/03/24 11:20:42;;;;;;;7.13;5.63;;;;;;;;;;4925906;29;20058;-70
2022/03/24 11:23:16;;;;;;;5.57;4.43;;;;;;;;;;4931331;29;20043;-68
2022/03/24 11:25:43;;;;;;;6.40;4.80;;;;;;;;;;4927146;29;20043;-68
2022/03/24 11:28:14;;;;;;;7.03;4.40;;;;;;;;;;4915911;29;20131;-67
2022/03/24 11:30:40;;;;;;;7.97;4.93;;;;;;;;;;4934013;29;20406;-67
2022/03/24 11:33:08;;;;;;;6.10;4.50;;;;;;;;;;4931390;29;20055;-66
2022/03/24 11:35:35;;;;;;;9.60;5.80;;;;;;;;;;4931759;29;20377;-69
2022/03/24 11:38:03;;;;;;;6.18;4.60;;;;;;;;;;4936137;29;20039;-68
2022/03/24 11:40:32;;;;;;;10.50;4.20;;;;;;;;;;4932168;29;20055;-69
2022/03/24 11:43:07;;;;;;;6.10;4.75;;;;;;;;;;4918505;29;20052;-70
2022/03/24 11:45:58;;;;;;;6.13;4.43;;;;;;;;;;4933849;29;20079;-72
2022/03/24 11:48:39;;;;;;;10.05;4.20;;;;;;;;;;4931215;29;20170;-71
2022/03/24 11:51:21;;;;;;;9.23;4.78;;;;;;;;;;4930104;29;20134;-72
2022/03/24 11:54:23;;;;;;;12.90;4.55;;;;;;;;;;4930931;29;20101;-67
2022/03/24 11:56:48;;;;;;;10.95;4.40;;;;;;;;;;4929811;29;20064;-70
2022/03/24 11:59:19;;;;;;;9.50;4.55;;;;;;;;;;4931386;29;20044;-71
2022/03/24 12:01:46;;;;;;;8.40;4.10;;;;;;;;;;4926532;29;20452;-68
2022/03/24 12:04:14;;;;;;;6.28;4.22;;;;;;;;;;4932864;29;20055;-68
2022/03/24 12:06:43;;;;;;;5.22;4.13;;;;;;;;;;4932507;29;20055;-67
2022/03/24 12:09:11;;;;;;;6.30;3.95;;;;;;;;;;4930970;29;20058;-70
2022/03/24 12:11:42;;;;;;;7.07;4.38;;;;;;;;;;4924088;29;20109;-68
2022/03/24 12:14:14;;;;;;;5.85;3.90;;;;;;;;;;4941168;29;20174;-69
2022/03/24 12:16:51;;;;;;;6.50;4.40;;;;;;;;;;4937950;29;20058;-70
2022/03/24 12:19:35;;;;;;;5.15;4.25;;;;;;;;;;4936205;29;20052;-71
2022/03/24 12:22:31;;;;;;;5.82;4.63;;;;;;;;;;4929747;29;20523;-69
2022/03/24 12:25:00;;;;;;;7.18;4.30;;;;;;;;;;4927899;29;20062;-70
2022/03/24 12:27:34;;;;;;;6.75;4.30;;;;;;;;;;4910307;29;20048;-70
2022/03/24 12:30:14;;;;;;;4.38;3.88;;;;;;;;;;4940840;29;20067;-67
2022/03/24 12:32:43;;;;;;;6.60;4.35;;;;;;;;;;4930553;29;20059;-70
2022/03/24 12:35:41;;;;;;;5.70;4.13;;;;;;;;;;4934300;29;20059;-68
2022/03/24 12:38:40;;;;;;;6.05;4.30;;;;;;;;;;4930084;29;20581;-69
2022/03/24 12:41:06;;;;;;;9.30;4.85;;;;;;;;;;4928402;29;20067;-68
2022/03/24 12:43:51;;;;;;;8.88;5.53;;;;;;;;;;4934162;29;20058;-67
2022/03/24 12:46:28;;;;;;;8.68;5.22;;;;;;;;;;4932948;29;20052;-68
2022/03/24 12:49:00;;;;;;;6.45;5.03;;;;;;;;;;4927749;29;20088;-68
2022/03/24 12:51:29;;;;;;;8.18;5.18;;;;;;;;;;4929346;29;20047;-68
2022/03/24 12:53:57;;;;;;;13.15;5.47;;;;;;;;;;4927062;29;20118;-67
2022/03/24 12:56:29;;;;;;;9.70;5.40;;;;;;;;;;4926996;29;20524;-69
2022/03/24 12:59:01;;;;;;;7.72;5.07;;;;;;;;;;4930018;29;20747;-68
2022/03/24 13:01:27;;;;;;;17.77;5.55;;;;;;;;;;4932209;29;20051;-67
2022/03/24 13:03:55;;;;;;;7.50;4.53;;;;;;;;;;4932286;29;20160;-67
2022/03/24 13:06:22;;;;;;;8.32;5.38;;;;;;;;;;4930071;29;20044;-67
2022/03/24 13:09:12;;;;;;;9.65;5.82;;;;;;;;;;4928782;29;20048;-67
2022/03/24 13:11:56;;;;;;;7.47;5.13;;;;;;;;;;4927937;29;20039;-67
2022/03/24 13:14:24;;;;;;;6.88;5.20;;;;;;;;;;4929065;29;20043;-69
2022/03/24 13:17:07;;;;;;;7.45;5.40;;;;;;;;;;4927262;29;20047;-69
2022/03/24 13:19:38;;;;;;;5.40;4.65;;;;;;;;;;4924492;29;20051;-66
2022/03/24 13:22:19;;;;;;;9.20;5.32;;;;;;;;;;4929277;29;20152;-68
2022/03/24 13:25:07;;;;;;;8.43;5.82;;;;;;;;;;4931253;29;20047;-67
2022/03/24 13:27:35;;;;;;;6.75;5.45;;;;;;;;;;4929495;29;20047;-67
2022/03/24 13:30:17;;;;;;;6.07;5.40;;;;;;;;;;4929266;29;20071;-70
2022/03/24 13:32:46;;;;;;;6.78;5.85;;;;;;;;;;4934533;29;20059;-69
2022/03/24 13:35:16;;;;;;;8.40;5.60;;;;;;;;;;4924981;29;20047;-68
2022/03/24 13:37:53;;;;;;;9.05;6.00;;;;;;;;;;4922442;29;20055;-72
2022/03/24 13:40:27;;;;;;;7.95;6.28;;;;;;;;;;4929723;29;20056;-67
2022/03/24 13:42:53;;;;;;;10.02;6.60;;;;;;;;;;4895761;29;20086;-69
2022/03/24 13:45:20;;;;;;;7.43;5.90;;;;;;;;;;4919404;29;20070;-68
2022/03/24 13:47:52;;;;;;;8.88;6.28;;;;;;;;;;4924122;29;20052;-69
2022/03/24 13:50:20;;;;;;;7.00;5.20;;;;;;;;;;4927125;29;20127;-67
2022/03/24 13:52:51;;;;;;;7.28;5.13;;;;;;;;;;4921249;29;21198;-68
2022/03/24 13:55:19;;;;;;;9.20;5.65;;;;;;;;;;4927298;28;20051;-68
2022/03/24 13:58:02;;;;;;;7.88;5.10;;;;;;;;;;4922639;29;20054;-66
2022/03/24 14:00:36;;;;;;;6.63;5.30;;;;;;;;;;4912532;29;20582;-68
2022/03/24 14:03:14;;;;;;;9.38;5.85;;;;;;;;;;4929991;29;20516;-67
2022/03/24 14:06:02;;;;;;;9.23;5.07;;;;;;;;;;4928196;29;20068;-67
2022/03/24 14:08:46;;;;;;;8.43;4.88;;;;;;;;;;4932775;29;20055;-67
2022/03/24 14:11:16;;;;;;;5.35;4.28;;;;;;;;;;4931255;29;20080;-66
2022/03/24 14:13:44;;;;;;;9.00;4.60;;;;;;;;;;4919350;29;20054;-68
2022/03/24 14:16:13;;;;;;;9.45;4.85;;;;;;;;;;4932262;29;20515;-67
2022/03/24 14:18:41;;;;;;;8.15;4.95;;;;;;;;;;4930202;29;20055;-72
2022/03/24 14:21:15;;;;;;;6.55;4.97;;;;;;;;;;4921965;29;20087;-72
2022/03/24 14:23:41;;;;;;;;;;;;;;;;;;4928056;29;20051;-70
2022/03/24 14:26:10;;;;;;;7.15;5.00;;;;;;;;;;4926481;29;19923;-66
2022/03/24 14:28:40;;;;;;;9.27;5.20;;;;;;;;;;4930162;29;20055;-70
2022/03/24 14:31:11;;;;;;;6.82;4.78;;;;;;;;;;4932459;29;20567;-69
2022/03/24 14:33:47;;;;;;;7.22;4.85;;;;;;;;;;4932836;29;20044;-69
2022/03/24 14:36:14;;;;;;;6.93;4.78;;;;;;;;;;4929764;29;20170;-70
2022/03/24 14:39:17;;;;;;;6.55;4.90;;;;;;;;;;4927063;29;20055;-70
2022/03/24 14:41:44;;;;;;;6.32;4.40;;;;;;;;;;4921951;29;20489;-74
2022/03/24 14:44:11;;;;;;;6.55;4.57;;;;;;;;;;4935122;29;20249;-70
2022/03/24 14:46:39;;;;;;;9.38;4.50;;;;;;;;;;4932793;29;20047;-68
2022/03/24 14:49:06;;;;;;;6.65;4.25;;;;;;;;;;4932559;29;20350;-69
2022/03/24 14:51:33;;;;;;;5.63;3.90;;;;;;;;;;4931961;29;20052;-68
2022/03/24 14:53:59;;;;;;;8.88;4.55;;;;;;;;;;4931220;29;20688;-69